Baldwin, Texas
Current Conditions -  °F | °C
As of 11:35 PM on Wednesday 26 Nov 2014 (Local Time) from KASL Reporting Station
Clear Clear  
Wind Chill: 47°   Ceiling: Unl
Heat Index: 49°   Visibility: 10mi
Dew Point: 37°   Wind: 6mph
Humidity: 64%   Direction: 320°NW
Pressure: 30.36"   Gusts: NA
Location:  32.6187°N, 94.1782°W
Report Text: KASL 270535Z AUTO 32005KT 10SM CLR 10/03 A3036 RMK AO1 T00950029
Loading
Personal Weather Stations






























Interactive Weather Map New forecast layout! Learn more

10-Day Weather Forecast

Advertisements
Track Severe Weather on mobile